createdAt,value
2023-03-12T00:02:24.915Z,1.50
2023-03-12T00:04:52.645Z,1.65
2023-03-12T00:07:20.055Z,1.33
2023-03-12T00:09:47.492Z,1.48
2023-03-12T00:12:15.183Z,1.48
2023-03-12T00:14:42.793Z,1.10
2023-03-12T00:17:10.215Z,1.60
2023-03-12T00:19:37.987Z,1.30
2023-03-12T00:22:05.506Z,1.35
2023-03-12T00:24:32.943Z,1.67
2023-03-12T00:27:00.671Z,1.10
2023-03-12T00:29:28.199Z,1.27
2023-03-12T00:31:55.781Z,1.45
2023-03-12T00:34:23.628Z,1.30
2023-03-12T00:36:51.109Z,1.40
2023-03-12T00:39:18.541Z,1.52
2023-03-12T00:41:46.317Z,1.50
2023-03-12T00:44:13.759Z,1.25
2023-03-12T00:46:41.248Z,1.52
2023-03-12T00:49:09.087Z,1.52
2023-03-12T00:51:36.522Z,1.65
2023-03-12T00:54:04.818Z,1.75
2023-03-12T00:56:32.588Z,1.30
2023-03-12T00:59:00.112Z,1.27
2023-03-12T01:01:27.839Z,1.37
2023-03-12T01:03:55.922Z,1.58
2023-03-12T01:06:23.419Z,1.45
2023-03-12T01:08:50.864Z,1.35
2023-03-12T01:11:19.523Z,1.40
2023-03-12T01:13:47.017Z,1.30
2023-03-12T01:16:14.494Z,1.25
2023-03-12T01:18:42.401Z,1.20
2023-03-12T01:21:09.870Z,1.65
2023-03-12T01:23:37.785Z,1.37
2023-03-12T01:26:05.486Z,1.67
2023-03-12T01:28:32.929Z,1.40
2023-03-12T01:31:07.123Z,1.20
2023-03-12T01:33:35.034Z,1.40
2023-03-12T01:36:02.550Z,1.20
2023-03-12T01:38:30.035Z,1.30
2023-03-12T01:40:57.745Z,1.27
2023-03-12T01:43:33.947Z,1.48
2023-03-12T01:46:24.184Z,1.30
2023-03-12T01:49:13.057Z,1.20
2023-03-12T01:51:57.942Z,1.30
2023-03-12T01:54:38.929Z,1.50
2023-03-12T01:57:08.714Z,1.15
2023-03-12T01:59:45.559Z,1.25
2023-03-12T02:02:14.860Z,1.37
2023-03-12T02:04:43.064Z,1.20
2023-03-12T02:07:14.583Z,1.30
2023-03-12T02:09:44.031Z,1.33
2023-03-12T02:12:11.556Z,1.10
2023-03-12T02:14:39.261Z,1.33
2023-03-12T02:17:07.000Z,1.27
2023-03-12T02:19:44.218Z,0.95
2023-03-12T02:22:11.942Z,1.23
2023-03-12T02:24:52.646Z,1.20
2023-03-12T02:27:20.431Z,1.20
2023-03-12T02:29:47.910Z,1.08
2023-03-12T02:32:20.177Z,1.50
2023-03-12T02:34:48.161Z,1.20
2023-03-12T02:37:15.694Z,1.27
2023-03-12T02:39:43.144Z,1.40
2023-03-12T02:42:10.929Z,1.23
2023-03-12T02:44:38.412Z,0.90
2023-03-12T02:47:06.141Z,1.20
2023-03-12T02:49:34.032Z,1.20
2023-03-12T02:52:01.984Z,1.10
2023-03-12T02:54:29.524Z,1.17
2023-03-12T02:56:57.573Z,1.20
2023-03-12T02:59:26.847Z,1.23
2023-03-12T03:01:58.901Z,1.50
2023-03-12T03:04:30.971Z,1.15
2023-03-12T03:06:58.485Z,1.05
2023-03-12T03:09:26.132Z,1.23
2023-03-12T03:11:54.018Z,1.00
2023-03-12T03:14:21.666Z,1.20
2023-03-12T03:16:49.553Z,1.10
2023-03-12T03:19:18.399Z,1.15
2023-03-12T03:21:45.825Z,1.35
2023-03-12T03:24:13.371Z,1.10
2023-03-12T03:26:41.111Z,1.00
2023-03-12T03:29:08.546Z,1.40
2023-03-12T03:31:36.296Z,1.27
2023-03-12T03:34:04.393Z,1.15
2023-03-12T03:36:31.819Z,1.08
2023-03-12T03:39:00.017Z,1.10
2023-03-12T03:41:28.218Z,1.35
2023-03-12T03:43:57.642Z,1.00
2023-03-12T03:46:25.525Z,1.10
2023-03-12T03:48:53.936Z,1.30
2023-03-12T03:51:21.639Z,1.30
2023-03-12T03:53:49.493Z,1.10
2023-03-12T03:56:17.247Z,1.10
2023-03-12T03:58:45.273Z,1.15
2023-03-12T04:01:13.982Z,1.50
2023-03-12T04:03:41.883Z,1.10
2023-03-12T04:06:09.419Z,1.00
2023-03-12T04:08:37.560Z,1.12
2023-03-12T04:11:09.377Z,1.30
2023-03-12T04:13:37.471Z,1.17
2023-03-12T04:16:05.807Z,1.20
2023-03-12T04:18:33.523Z,0.93
2023-03-12T04:21:01.021Z,1.10
2023-03-12T04:23:28.778Z,1.23
2023-03-12T04:25:56.496Z,0.98
2023-03-12T04:28:23.977Z,1.30
2023-03-12T04:31:01.564Z,1.37
2023-03-12T04:33:32.085Z,1.10
2023-03-12T04:36:00.264Z,1.27
2023-03-12T04:38:27.800Z,1.20
2023-03-12T04:41:00.143Z,1.08
2023-03-12T04:43:28.645Z,1.10
2023-03-12T04:45:56.445Z,1.10
2023-03-12T04:48:24.393Z,1.00
2023-03-12T04:50:52.256Z,1.10
2023-03-12T04:53:19.829Z,1.00
2023-03-12T04:55:47.854Z,1.23
2023-03-12T04:58:16.678Z,1.05
2023-03-12T05:00:44.500Z,0.90
2023-03-12T05:03:12.384Z,1.10
2023-03-12T05:05:40.198Z,1.10
2023-03-12T05:08:07.675Z,1.12
2023-03-12T05:10:35.278Z,1.12
2023-03-12T05:13:03.113Z,1.37
2023-03-12T05:15:30.665Z,0.85
2023-03-12T05:17:58.367Z,1.40
2023-03-12T05:20:26.119Z,1.10
2023-03-12T05:22:53.571Z,1.15
2023-03-12T05:25:21.009Z,1.05
2023-03-12T05:27:48.756Z,1.08
2023-03-12T05:30:16.453Z,1.20
2023-03-12T05:32:43.886Z,0.93
2023-03-12T05:35:12.019Z,1.20
2023-03-12T05:37:42.730Z,1.00
2023-03-12T05:40:11.958Z,1.58
2023-03-12T05:42:39.528Z,1.17
2023-03-12T05:45:08.281Z,1.20
2023-03-12T05:47:36.452Z,1.20
2023-03-12T05:50:04.200Z,1.08
2023-03-12T05:52:31.765Z,1.02
2023-03-12T05:54:59.495Z,1.10
2023-03-12T05:57:26.964Z,0.90
2023-03-12T05:59:54.497Z,0.93
2023-03-12T06:02:22.439Z,1.30
2023-03-12T06:04:50.300Z,1.20
2023-03-12T06:07:17.748Z,1.10
2023-03-12T06:09:45.219Z,1.30
2023-03-12T06:12:13.406Z,0.95
2023-03-12T06:14:40.924Z,1.05
2023-03-12T06:17:08.357Z,1.02
2023-03-12T06:19:36.073Z,1.00
2023-03-12T06:22:04.288Z,1.23
2023-03-12T06:24:31.743Z,1.00
2023-03-12T06:27:00.184Z,1.23
2023-03-12T06:29:27.592Z,1.05
2023-03-12T06:31:56.074Z,0.85
2023-03-12T06:34:23.825Z,1.10
2023-03-12T06:36:51.229Z,1.23
2023-03-12T06:39:18.742Z,1.40
2023-03-12T06:41:46.471Z,1.50
2023-03-12T06:44:13.889Z,1.27
2023-03-12T06:46:42.756Z,1.10
2023-03-12T06:49:11.263Z,1.60
2023-03-12T06:51:38.781Z,1.00
2023-03-12T06:54:06.234Z,1.40
2023-03-12T06:56:33.932Z,1.33
2023-03-12T06:59:01.392Z,1.58
2023-03-12T07:01:28.877Z,1.37
2023-03-12T07:03:56.604Z,1.35
2023-03-12T07:06:24.468Z,1.40
2023-03-12T07:08:52.290Z,1.20
2023-03-12T07:11:19.980Z,1.45
2023-03-12T07:13:47.536Z,1.42
2023-03-12T07:16:15.065Z,1.20
2023-03-12T07:18:42.927Z,1.40
2023-03-12T07:21:10.363Z,1.40
2023-03-12T07:23:37.798Z,1.40
2023-03-12T07:26:06.016Z,1.70
2023-03-12T07:28:33.534Z,1.75
2023-03-12T07:31:04.318Z,1.40
2023-03-12T07:33:32.396Z,1.65
2023-03-12T07:36:00.206Z,1.50
2023-03-12T07:38:27.843Z,1.23
2023-03-12T07:40:56.142Z,1.60
2023-03-12T07:43:23.934Z,1.60
2023-03-12T07:45:51.609Z,1.65
2023-03-12T07:48:20.132Z,1.55
2023-03-12T07:50:48.503Z,1.40
2023-03-12T07:53:16.147Z,1.45
2023-03-12T07:55:45.122Z,1.35
2023-03-12T07:58:13.933Z,1.60
2023-03-12T08:00:41.513Z,1.58
2023-03-12T08:03:09.645Z,2.40
2023-03-12T08:05:37.279Z,2.80
2023-03-12T08:08:04.720Z,2.58
2023-03-12T08:10:32.600Z,1.80
2023-03-12T08:13:00.142Z,2.10
2023-03-12T08:15:27.614Z,2.00
2023-03-12T08:17:55.360Z,2.10
2023-03-12T08:20:22.790Z,1.77
2023-03-12T08:22:50.634Z,1.90
2023-03-12T08:25:21.051Z,1.92
2023-03-12T08:30:15.798Z,1.60
2023-03-12T08:32:43.614Z,1.70
2023-03-12T08:35:11.039Z,1.80
2023-03-12T08:37:38.442Z,1.90
2023-03-12T08:40:13.387Z,1.90
2023-03-12T08:42:41.663Z,1.77
2023-03-12T08:45:10.900Z,1.70
2023-03-12T08:47:41.685Z,1.98
2023-03-12T08:50:11.281Z,1.60
2023-03-12T08:52:38.903Z,1.97
2023-03-12T08:55:06.631Z,1.95
2023-03-12T08:57:34.394Z,2.40
2023-03-12T09:00:01.930Z,5.97
2023-03-12T09:02:29.531Z,6.72
2023-03-12T09:04:57.240Z,8.07
2023-03-12T09:07:24.691Z,9.73
2023-03-12T09:09:52.217Z,11.32
2023-03-12T09:12:19.955Z,10.93
2023-03-12T09:15:02.914Z,11.73
2023-03-12T09:17:31.432Z,11.70
2023-03-12T09:19:58.922Z,11.02
2023-03-12T09:22:26.387Z,12.02
2023-03-12T09:24:54.893Z,11.45
2023-03-12T09:27:22.381Z,10.27
2023-03-12T09:30:00.284Z,10.90
2023-03-12T09:32:28.942Z,10.63
2023-03-12T09:34:56.537Z,9.98
2023-03-12T09:37:24.550Z,9.02
2023-03-12T09:39:52.684Z,9.57
2023-03-12T09:42:31.083Z,9.93
2023-03-12T09:45:00.222Z,8.77
2023-03-12T09:47:32.078Z,8.98
2023-03-12T09:50:18.663Z,9.43
2023-03-12T09:53:05.519Z,8.88
2023-03-12T09:55:37.064Z,9.43
2023-03-12T09:58:04.561Z,9.32
2023-03-12T10:00:34.610Z,8.45
2023-03-12T10:03:17.546Z,8.98
2023-03-12T10:06:16.326Z,9.30
2023-03-12T10:08:59.164Z,8.35
2023-03-12T10:11:29.529Z,8.27
2023-03-12T10:14:00.256Z,9.30
2023-03-12T10:16:56.827Z,9.10
2023-03-12T10:19:51.880Z,8.85
2023-03-12T10:22:32.045Z,8.70
2023-03-12T10:25:24.942Z,10.18
2023-03-12T10:27:52.400Z,10.25
2023-03-12T10:30:23.849Z,8.95
2023-03-12T10:32:57.418Z,9.52
2023-03-12T10:35:26.737Z,10.45
2023-03-12T10:38:04.234Z,8.90
2023-03-12T10:40:35.951Z,10.23
2023-03-12T10:43:04.200Z,10.02
2023-03-12T10:45:40.934Z,9.93
2023-03-12T10:48:09.961Z,10.20
2023-03-12T10:50:38.608Z,9.15
2023-03-12T10:53:29.805Z,9.35
2023-03-12T10:56:01.326Z,9.57
2023-03-12T10:58:41.000Z,10.35
2023-03-12T11:01:24.009Z,11.15
2023-03-12T11:03:51.966Z,9.50
2023-03-12T11:06:29.834Z,9.18
2023-03-12T11:09:16.805Z,9.98
2023-03-12T11:11:47.483Z,9.95
2023-03-12T11:14:24.933Z,10.10
2023-03-12T11:16:53.106Z,8.85
2023-03-12T11:19:31.159Z,9.45
2023-03-12T11:22:03.290Z,8.50
2023-03-12T11:24:30.844Z,9.90
2023-03-12T11:27:14.430Z,8.88
2023-03-12T11:29:47.120Z,8.93
2023-03-12T11:32:23.745Z,8.80
2023-03-12T11:34:52.698Z,8.77
2023-03-12T11:37:26.066Z,8.95
2023-03-12T11:40:31.012Z,9.25
2023-03-12T11:43:43.739Z,8.95
2023-03-12T11:46:33.472Z,8.68
2023-03-12T11:49:16.108Z,10.07
2023-03-12T11:51:50.901Z,9.75
2023-03-12T11:54:29.800Z,9.30
2023-03-12T11:57:19.862Z,9.23
2023-03-12T12:00:12.164Z,8.02
2023-03-12T12:03:17.543Z,7.85
2023-03-12T12:06:00.589Z,8.55
2023-03-12T12:08:47.559Z,7.30
2023-03-12T12:11:19.998Z,7.65
2023-03-12T12:13:56.801Z,7.32
2023-03-12T12:16:32.781Z,7.28
2023-03-12T12:19:28.276Z,7.45
2023-03-12T12:22:07.707Z,7.37
2023-03-12T12:24:44.560Z,7.50
2023-03-12T12:27:33.264Z,7.12
2023-03-12T12:30:07.085Z,6.95
2023-03-12T12:32:44.294Z,7.15
2023-03-12T12:35:20.045Z,6.62
2023-03-12T12:37:52.903Z,6.43
2023-03-12T12:40:39.831Z,7.75
2023-03-12T12:43:28.076Z,6.57
2023-03-12T12:45:58.373Z,6.22
2023-03-12T12:48:45.996Z,6.50
2023-03-12T12:51:13.742Z,6.87
2023-03-12T12:54:26.131Z,6.43
2023-03-12T12:57:14.729Z,7.05
2023-03-12T12:59:45.262Z,6.15
2023-03-12T13:02:17.278Z,6.60
2023-03-12T13:04:44.750Z,5.95
2023-03-12T13:07:12.223Z,6.10
2023-03-12T13:09:43.428Z,6.10
2023-03-12T13:12:20.318Z,6.35
2023-03-12T13:14:48.809Z,6.50
2023-03-12T13:17:27.441Z,6.15
2023-03-12T13:20:20.790Z,6.53
2023-03-12T13:23:05.673Z,5.60
2023-03-12T13:26:00.559Z,6.07
2023-03-12T13:28:32.393Z,6.40
2023-03-12T13:31:08.174Z,5.45
2023-03-12T13:33:48.164Z,5.95
2023-03-12T13:38:56.371Z,5.12
2023-03-12T13:41:41.314Z,5.80
2023-03-12T13:44:23.798Z,5.28
2023-03-12T13:47:03.540Z,5.12
2023-03-12T13:49:42.188Z,4.83
2023-03-12T13:52:25.073Z,4.30
2023-03-12T13:55:08.474Z,4.68
2023-03-12T13:57:41.852Z,4.75
2023-03-12T14:00:43.843Z,5.00
2023-03-12T14:03:35.582Z,4.10
2023-03-12T14:06:20.311Z,4.30
2023-03-12T14:08:55.123Z,4.53
2023-03-12T14:11:33.461Z,4.70
2023-03-12T14:14:24.894Z,4.78
2023-03-12T14:17:02.710Z,4.80
2023-03-12T14:19:31.496Z,4.35
2023-03-12T14:22:02.007Z,4.28
2023-03-12T14:24:34.888Z,4.05
2023-03-12T14:27:03.116Z,4.07
2023-03-12T14:30:05.556Z,3.70
2023-03-12T14:32:33.040Z,4.40
2023-03-12T14:35:20.689Z,4.37
2023-03-12T14:38:05.392Z,3.60
2023-03-12T14:40:40.087Z,4.15
2023-03-12T14:43:24.567Z,4.37
2023-03-12T14:46:03.161Z,4.28
2023-03-12T14:48:35.861Z,4.53
2023-03-12T14:51:05.861Z,3.42
2023-03-12T14:53:35.523Z,4.07
2023-03-12T14:56:12.555Z,4.20
2023-03-12T14:58:45.238Z,4.93
2023-03-12T15:01:15.533Z,3.97
2023-03-12T15:03:47.281Z,3.70
2023-03-12T15:06:31.367Z,3.55
2023-03-12T15:09:00.402Z,3.35
2023-03-12T15:11:28.959Z,3.90
2023-03-12T15:13:56.656Z,3.72
2023-03-12T15:16:25.016Z,3.45
2023-03-12T15:18:54.556Z,3.35
2023-03-12T15:21:22.324Z,3.55
2023-03-12T15:23:51.029Z,3.35
2023-03-12T15:26:22.561Z,3.53
2023-03-12T15:29:04.047Z,3.83
2023-03-12T15:31:49.029Z,3.12
2023-03-12T15:34:39.302Z,3.30
2023-03-12T15:37:41.552Z,4.35
2023-03-12T15:40:26.814Z,4.35
2023-03-12T15:42:57.559Z,4.60
2023-03-12T15:45:37.342Z,4.18
2023-03-12T15:48:33.874Z,4.70
2023-03-12T15:51:02.128Z,5.28
2023-03-12T15:53:32.445Z,4.82
2023-03-12T15:56:04.831Z,5.70
2023-03-12T15:58:35.401Z,5.43
2023-03-12T16:01:07.298Z,5.97
2023-03-12T16:03:35.496Z,6.12
2023-03-12T16:06:03.252Z,7.40
2023-03-12T16:08:51.251Z,6.95
2023-03-12T16:11:22.021Z,7.30
2023-03-12T16:13:53.487Z,6.05
2023-03-12T16:16:22.271Z,6.95
2023-03-12T16:18:50.961Z,6.87
2023-03-12T16:21:19.380Z,6.80
2023-03-12T16:23:47.979Z,6.97
2023-03-12T16:26:15.948Z,6.72
2023-03-12T16:28:43.691Z,6.80
2023-03-12T16:31:14.155Z,7.00
2023-03-12T16:33:42.958Z,7.32
2023-03-12T16:36:16.069Z,7.10
2023-03-12T16:38:44.240Z,6.47
2023-03-12T16:41:15.764Z,6.28
2023-03-12T16:43:47.405Z,7.32
2023-03-12T16:46:18.882Z,6.72
2023-03-12T16:48:50.238Z,6.60
2023-03-12T16:51:19.927Z,6.97
2023-03-12T16:53:58.473Z,6.72
2023-03-12T16:56:34.190Z,6.62
2023-03-12T16:59:13.785Z,6.80
2023-03-12T17:01:42.458Z,6.28
2023-03-12T17:04:11.930Z,6.10
2023-03-12T17:06:40.959Z,6.70
2023-03-12T17:09:09.690Z,6.50
2023-03-12T17:11:39.812Z,6.18
2023-03-12T17:14:19.103Z,5.87
2023-03-12T17:16:49.420Z,6.32
2023-03-12T17:19:18.735Z,6.30
2023-03-12T17:21:48.034Z,5.93
2023-03-12T17:24:17.058Z,6.05
2023-03-12T17:26:49.292Z,5.97
2023-03-12T17:29:18.801Z,7.07
2023-03-12T17:31:48.144Z,5.87
2023-03-12T17:34:18.150Z,5.87
2023-03-12T17:36:47.540Z,6.32
2023-03-12T17:39:16.661Z,6.33
2023-03-12T17:41:45.341Z,5.60
2023-03-12T17:44:16.498Z,6.70
2023-03-12T17:46:58.435Z,6.53
2023-03-12T17:49:29.499Z,7.18
2023-03-12T17:51:58.239Z,6.97
2023-03-12T17:54:26.937Z,7.57
2023-03-12T17:56:56.006Z,7.68
2023-03-12T17:59:24.347Z,9.00
2023-03-12T18:01:53.465Z,8.10
2023-03-12T18:04:22.158Z,7.97
2023-03-12T18:06:51.743Z,8.57
2023-03-12T18:09:19.927Z,8.70
2023-03-12T18:11:48.503Z,8.57
2023-03-12T18:14:18.023Z,8.40
2023-03-12T18:16:46.422Z,8.18
2023-03-12T18:19:15.681Z,8.27
2023-03-12T18:21:45.640Z,9.50
2023-03-12T18:26:45.362Z,8.52
2023-03-12T18:29:14.132Z,8.80
2023-03-12T18:31:42.972Z,8.68
2023-03-12T18:34:13.413Z,8.13
2023-03-12T18:36:41.831Z,8.77
2023-03-12T18:39:10.640Z,7.62
2023-03-12T18:41:42.145Z,8.18
2023-03-12T18:44:11.391Z,8.38
2023-03-12T18:46:41.056Z,8.75
2023-03-12T18:49:09.543Z,8.65
2023-03-12T18:51:38.223Z,8.90
2023-03-12T18:54:08.310Z,8.10
2023-03-12T18:56:39.829Z,7.93
2023-03-12T18:59:10.481Z,8.23
2023-03-12T19:01:38.920Z,8.10
2023-03-12T19:04:07.344Z,9.10
2023-03-12T19:09:19.653Z,8.40
2023-03-12T19:11:50.368Z,8.57
2023-03-12T19:14:20.258Z,9.25
2023-03-12T19:19:17.846Z,8.73
2023-03-12T19:21:50.437Z,9.30
2023-03-12T19:24:20.490Z,7.95
2023-03-12T19:26:49.295Z,8.85
2023-03-12T19:29:19.711Z,8.32
2023-03-12T19:31:50.509Z,8.40
2023-03-12T19:34:20.446Z,9.00
2023-03-12T19:36:51.100Z,8.40
2023-03-12T19:39:21.431Z,9.50
2023-03-12T19:41:52.006Z,9.02
2023-03-12T19:46:51.213Z,7.97
2023-03-12T19:49:20.213Z,8.45
2023-03-12T19:51:49.293Z,8.23
2023-03-12T19:56:47.722Z,8.30
2023-03-12T19:59:17.005Z,8.43
2023-03-12T20:01:49.577Z,8.68
2023-03-12T20:04:18.149Z,8.48
2023-03-12T20:06:48.831Z,8.45
2023-03-12T20:09:18.052Z,8.95
2023-03-12T20:11:46.790Z,8.30
2023-03-12T20:14:16.943Z,8.80
2023-03-12T20:16:47.865Z,7.55
2023-03-12T20:19:18.708Z,8.50
2023-03-12T20:21:49.200Z,8.32
2023-03-12T20:24:18.483Z,8.07
2023-03-12T20:26:48.380Z,8.17
2023-03-12T20:29:18.625Z,7.72
2023-03-12T20:31:46.887Z,8.35
2023-03-12T20:34:16.241Z,8.00
2023-03-12T20:36:45.695Z,7.95
2023-03-12T20:41:44.362Z,8.15
2023-03-12T20:44:12.874Z,7.95
2023-03-12T20:46:41.573Z,8.43
2023-03-12T20:49:09.737Z,7.57
2023-03-12T20:51:39.788Z,8.35
2023-03-12T20:54:09.677Z,7.78
2023-03-12T20:56:41.936Z,8.10
2023-03-12T20:59:17.437Z,7.55
2023-03-12T21:01:46.441Z,7.20
2023-03-12T21:04:16.612Z,7.82
2023-03-12T21:06:46.102Z,7.47
2023-03-12T21:09:15.699Z,7.55
2023-03-12T21:11:43.971Z,8.57
2023-03-12T21:14:12.911Z,8.57
2023-03-12T21:16:41.729Z,8.73
2023-03-12T21:19:10.061Z,8.93
2023-03-12T21:21:38.054Z,8.82
2023-03-12T21:24:06.091Z,7.60
2023-03-12T21:26:33.713Z,8.20
2023-03-12T21:29:02.434Z,8.05
2023-03-12T21:31:32.765Z,8.15
2023-03-12T21:34:00.526Z,8.05
2023-03-12T21:36:30.483Z,7.70
2023-03-12T21:39:00.701Z,7.43
2023-03-12T21:41:30.041Z,7.72
2023-03-12T21:44:01.044Z,8.00
2023-03-12T21:46:30.065Z,7.87
2023-03-12T21:48:58.805Z,7.07
2023-03-12T21:51:26.402Z,7.97
2023-03-12T21:53:57.181Z,7.22
2023-03-12T21:56:28.932Z,6.80
2023-03-12T21:58:57.330Z,6.85
2023-03-12T22:01:25.263Z,7.53
2023-03-12T22:03:53.044Z,7.05
2023-03-12T22:06:20.482Z,7.18
2023-03-12T22:08:52.251Z,7.80
2023-03-12T22:11:19.992Z,6.65
2023-03-12T22:13:47.664Z,7.68
2023-03-12T22:16:15.356Z,7.93
2023-03-12T22:18:44.407Z,8.00
2023-03-12T22:21:16.790Z,6.87
2023-03-12T22:23:44.620Z,6.68
2023-03-12T22:26:12.026Z,7.05
2023-03-12T22:28:39.642Z,6.37
2023-03-12T22:31:07.978Z,7.12
2023-03-12T22:33:36.367Z,7.25
2023-03-12T22:36:07.770Z,6.80
2023-03-12T22:38:36.630Z,6.45
2023-03-12T22:41:19.365Z,6.75
2023-03-12T22:43:47.496Z,6.82
2023-03-12T22:46:16.591Z,6.57
2023-03-12T22:48:44.856Z,6.60
2023-03-12T22:51:12.623Z,6.72
2023-03-12T22:53:40.064Z,6.60
2023-03-12T22:56:09.287Z,6.30
2023-03-12T22:58:37.120Z,6.57
2023-03-12T23:01:05.807Z,6.70
2023-03-12T23:03:33.565Z,7.15
2023-03-12T23:06:01.310Z,6.22
2023-03-12T23:08:28.908Z,6.70
2023-03-12T23:10:58.051Z,6.30
2023-03-12T23:13:25.977Z,6.18
2023-03-12T23:15:53.415Z,6.18
2023-03-12T23:18:21.041Z,6.32
2023-03-12T23:20:48.799Z,6.70
2023-03-12T23:23:16.235Z,6.95
2023-03-12T23:25:43.676Z,6.55
2023-03-12T23:28:11.366Z,6.35
2023-03-12T23:30:38.810Z,6.32
2023-03-12T23:33:06.234Z,6.07
2023-03-12T23:35:33.991Z,6.12
2023-03-12T23:38:01.443Z,5.53
2023-03-12T23:40:28.838Z,6.70
2023-03-12T23:42:56.553Z,6.45
2023-03-12T23:45:24.046Z,6.15
2023-03-12T23:47:51.643Z,5.55
2023-03-12T23:50:19.343Z,5.62
2023-03-12T23:52:46.893Z,5.85
2023-03-12T23:55:14.318Z,6.00
2023-03-12T23:57:42.006Z,6.05
